sensor_id;sensor_type;location;lat;lon;timestamp;pressure;altitude;pressure_sealevel;temperature;humidity
28000;BME280;15328;50.860;10.562;2023-02-12T00:04:18;98348.91;;;7.49;69.12
28000;BME280;15328;50.860;10.562;2023-02-12T00:09:19;98357.22;;;7.54;68.82
28000;BME280;15328;50.860;10.562;2023-02-12T00:14:19;98350.56;;;7.50;69.20
28000;BME280;15328;50.860;10.562;2023-02-12T00:19:19;98353.91;;;7.52;69.10
28000;BME280;15328;50.860;10.562;2023-02-12T00:24:20;98354.88;;;7.51;68.93
28000;BME280;15328;50.860;10.562;2023-02-12T00:29:20;98355.88;;;7.50;68.96
28000;BME280;15328;50.860;10.562;2023-02-12T00:34:20;98347.47;;;7.54;68.93
28000;BME280;15328;50.860;10.562;2023-02-12T00:39:21;98345.75;;;7.45;69.10
28000;BME280;15328;50.860;10.562;2023-02-12T00:44:21;98352.25;;;7.51;69.32
28000;BME280;15328;50.860;10.562;2023-02-12T00:49:22;98345.97;;;7.52;69.23
28000;BME280;15328;50.860;10.562;2023-02-12T00:54:22;98351.56;;;7.49;68.80
28000;BME280;15328;50.860;10.562;2023-02-12T00:59:23;98350.56;;;7.50;68.81
28000;BME280;15328;50.860;10.562;2023-02-12T01:04:23;98359.66;;;7.47;68.84
28000;BME280;15328;50.860;10.562;2023-02-12T01:09:24;98352.91;;;7.53;68.69
28000;BME280;15328;50.860;10.562;2023-02-12T01:14:24;98358.81;;;7.47;69.15
28000;BME280;15328;50.860;10.562;2023-02-12T01:19:25;98348.59;;;7.52;68.55
28000;BME280;15328;50.860;10.562;2023-02-12T01:24:25;98350.38;;;7.43;69.16
28000;BME280;15328;50.860;10.562;2023-02-12T01:29:25;98347.03;;;7.41;69.38
28000;BME280;15328;50.860;10.562;2023-02-12T01:34:26;98354.97;;;7.41;69.43
28000;BME280;15328;50.860;10.562;2023-02-12T01:39:26;98354.97;;;7.41;69.67
28000;BME280;15328;50.860;10.562;2023-02-12T01:44:31;98360.84;;;7.35;69.93
28000;BME280;15328;50.860;10.562;2023-02-12T01:54:35;98358.66;;;7.30;70.19
28000;BME280;15328;50.860;10.562;2023-02-12T01:59:37;98353.22;;;7.32;70.00
28000;BME280;15328;50.860;10.562;2023-02-12T02:04:43;98354.34;;;7.29;69.63
28000;BME280;15328;50.860;10.562;2023-02-12T02:09:45;98351.69;;;7.29;69.63
28000;BME280;15328;50.860;10.562;2023-02-12T02:14:47;98360.94;;;7.25;69.64
28000;BME280;15328;50.860;10.562;2023-02-12T02:30:38;98341.88;;;7.22;69.65
28000;BME280;15328;50.860;10.562;2023-02-12T02:35:46;98348.31;;;7.19;68.86
28000;BME280;15328;50.860;10.562;2023-02-12T02:41:01;98347.31;;;7.20;69.25
28000;BME280;15328;50.860;10.562;2023-02-12T02:46:08;98339.38;;;7.20;69.01
28000;BME280;15328;50.860;10.562;2023-02-12T02:51:17;98338.56;;;7.20;69.03
28000;BME280;15328;50.860;10.562;2023-02-12T02:56:19;98339.38;;;7.20;69.33
28000;BME280;15328;50.860;10.562;2023-02-12T03:01:27;98340.38;;;7.19;69.33
28000;BME280;15328;50.860;10.562;2023-02-12T03:06:39;98342.34;;;7.17;68.93
28000;BME280;15328;50.860;10.562;2023-02-12T03:11:41;98342.63;;;7.14;69.00
28000;BME280;15328;50.860;10.562;2023-02-12T03:17:01;98340.97;;;7.13;68.68
28000;BME280;15328;50.860;10.562;2023-02-12T03:22:07;98335.94;;;7.10;68.80
28000;BME280;15328;50.860;10.562;2023-02-12T03:27:34;98348.06;;;7.12;68.42
28000;BME280;15328;50.860;10.562;2023-02-12T03:32:54;98351.00;;;7.09;68.60
28000;BME280;15328;50.860;10.562;2023-02-12T03:43:48;98337.34;;;7.14;68.86
28000;BME280;15328;50.860;10.562;2023-02-12T03:49:06;98332.03;;;7.14;68.89
28000;BME280;15328;50.860;10.562;2023-02-12T03:54:13;98340.13;;;7.12;68.68
28000;BME280;15328;50.860;10.562;2023-02-12T03:59:16;98339.16;;;7.13;68.91
28000;BME280;15328;50.860;10.562;2023-02-12T04:04:18;98347.09;;;7.13;68.89
28000;BME280;15328;50.860;10.562;2023-02-12T04:09:19;98354.88;;;7.15;69.05
28000;BME280;15328;50.860;10.562;2023-02-12T04:14:48;98356.56;;;7.16;68.85
28000;BME280;15328;50.860;10.562;2023-02-12T04:25:00;98362.81;;;7.15;69.11
28000;BME280;15328;50.860;10.562;2023-02-12T04:30:17;98364.63;;;7.15;69.06
28000;BME280;15328;50.860;10.562;2023-02-12T04:35:24;98375.22;;;7.15;69.15
28000;BME280;15328;50.860;10.562;2023-02-12T04:40:26;98374.94;;;7.18;68.94
28000;BME280;15328;50.860;10.562;2023-02-12T04:45:31;98375.38;;;7.13;69.44
28000;BME280;15328;50.860;10.562;2023-02-12T04:50:41;98386.19;;;7.20;69.65
28000;BME280;15328;50.860;10.562;2023-02-12T04:55:42;98383.03;;;7.16;69.14
28000;BME280;15328;50.860;10.562;2023-02-12T05:00:42;98384.84;;;7.16;69.39
28000;BME280;15328;50.860;10.562;2023-02-12T05:05:42;98391.09;;;7.15;69.10
28000;BME280;15328;50.860;10.562;2023-02-12T05:10:43;98384.00;;;7.15;69.10
28000;BME280;15328;50.860;10.562;2023-02-12T05:15:43;98385.81;;;7.15;69.21
28000;BME280;15328;50.860;10.562;2023-02-12T05:20:43;98389.28;;;7.15;69.55
28000;BME280;15328;50.860;10.562;2023-02-12T05:25:44;98386.66;;;7.15;69.70
28000;BME280;15328;50.860;10.562;2023-02-12T05:30:44;98396.09;;;7.18;69.78
28000;BME280;15328;50.860;10.562;2023-02-12T05:35:44;98404.19;;;7.16;69.66
28000;BME280;15328;50.860;10.562;2023-02-12T05:40:45;98406.69;;;7.18;69.14
28000;BME280;15328;50.860;10.562;2023-02-12T05:45:45;98397.75;;;7.19;69.50
28000;BME280;15328;50.860;10.562;2023-02-12T05:50:45;98402.53;;;7.15;69.53
28000;BME280;15328;50.860;10.562;2023-02-12T05:55:46;98401.00;;;7.12;69.61
28000;BME280;15328;50.860;10.562;2023-02-12T06:00:46;98404.50;;;7.13;69.55
28000;BME280;15328;50.860;10.562;2023-02-12T06:05:50;98416.19;;;7.10;69.37
28000;BME280;15328;50.860;10.562;2023-02-12T06:10:50;98417.00;;;7.11;69.23
28000;BME280;15328;50.860;10.562;2023-02-12T06:15:51;98415.34;;;7.10;68.80
28000;BME280;15328;50.860;10.562;2023-02-12T06:20:51;98414.50;;;7.09;69.22
28000;BME280;15328;50.860;10.562;2023-02-12T06:25:55;98417.59;;;7.05;69.19
28000;BME280;15328;50.860;10.562;2023-02-12T06:30:55;98423.88;;;7.04;69.50
28000;BME280;15328;50.860;10.562;2023-02-12T06:35:56;98428.34;;;7.03;69.40
28000;BME280;15328;50.860;10.562;2023-02-12T06:41:00;98432.81;;;7.03;69.32
28000;BME280;15328;50.860;10.562;2023-02-12T06:46:01;98429.47;;;7.01;69.74
28000;BME280;15328;50.860;10.562;2023-02-12T06:56:08;98438.94;;;7.03;69.52
28000;BME280;15328;50.860;10.562;2023-02-12T07:01:19;98438.94;;;7.03;69.68
28000;BME280;15328;50.860;10.562;2023-02-12T07:06:20;98439.63;;;7.05;69.91
28000;BME280;15328;50.860;10.562;2023-02-12T07:11:26;98451.47;;;7.01;69.83
28000;BME280;15328;50.860;10.562;2023-02-12T07:16:27;98449.50;;;7.03;69.91
28000;BME280;15328;50.860;10.562;2023-02-12T07:21:27;98449.06;;;7.08;69.52
28000;BME280;15328;50.860;10.562;2023-02-12T07:26:28;98457.44;;;7.13;69.85
28000;BME280;15328;50.860;10.562;2023-02-12T07:31:28;98455.31;;;7.17;69.85
28000;BME280;15328;50.860;10.562;2023-02-12T07:36:30;98467.56;;;7.18;70.11
28000;BME280;15328;50.860;10.562;2023-02-12T07:41:33;98468.41;;;7.18;70.06
28000;BME280;15328;50.860;10.562;2023-02-12T07:46:42;98478.00;;;7.19;70.27
28000;BME280;15328;50.860;10.562;2023-02-12T07:51:42;98482.31;;;7.20;70.03
28000;BME280;15328;50.860;10.562;2023-02-12T07:56:43;98483.00;;;7.22;69.93
28000;BME280;15328;50.860;10.562;2023-02-12T08:01:51;98482.56;;;7.27;69.98
28000;BME280;15328;50.860;10.562;2023-02-12T08:06:53;98487.72;;;7.28;69.91
28000;BME280;15328;50.860;10.562;2023-02-12T08:11:54;98490.88;;;7.32;70.08
28000;BME280;15328;50.860;10.562;2023-02-12T08:16:54;98494.47;;;7.40;70.01
28000;BME280;15328;50.860;10.562;2023-02-12T08:21:55;98505.16;;;7.49;70.09
28000;BME280;15328;50.860;10.562;2023-02-12T08:26:56;98511.28;;;7.49;70.55
28000;BME280;15328;50.860;10.562;2023-02-12T08:31:59;98517.41;;;7.50;70.06
28000;BME280;15328;50.860;10.562;2023-02-12T08:37:00;98517.41;;;7.50;70.46
28000;BME280;15328;50.860;10.562;2023-02-12T08:42:01;98514.25;;;7.46;70.05
28000;BME280;15328;50.860;10.562;2023-02-12T08:47:01;98527.19;;;7.49;70.12
28000;BME280;15328;50.860;10.562;2023-02-12T08:52:02;98517.97;;;7.53;69.97
28000;BME280;15328;50.860;10.562;2023-02-12T08:57:02;98525.84;;;7.63;70.01
28000;BME280;15328;50.860;10.562;2023-02-12T09:02:03;98520.94;;;7.68;70.43
28000;BME280;15328;50.860;10.562;2023-02-12T09:07:07;98528.16;;;7.75;69.70
28000;BME280;15328;50.860;10.562;2023-02-12T09:12:07;98529.34;;;7.81;70.19
28000;BME280;15328;50.860;10.562;2023-02-12T09:17:08;98531.09;;;7.90;70.14
28000;BME280;15328;50.860;10.562;2023-02-12T09:22:08;98541.97;;;7.97;69.92
28000;BME280;15328;50.860;10.562;2023-02-12T09:27:09;98534.38;;;8.02;69.73
28000;BME280;15328;50.860;10.562;2023-02-12T09:32:09;98542.56;;;8.09;69.86
28000;BME280;15328;50.860;10.562;2023-02-12T09:37:09;98541.09;;;8.14;69.46
28000;BME280;15328;50.860;10.562;2023-02-12T09:52:40;98560.66;;;8.31;69.61
28000;BME280;15328;50.860;10.562;2023-02-12T09:57:41;98551.97;;;8.39;68.98
28000;BME280;15328;50.860;10.562;2023-02-12T10:02:42;98555.00;;;8.44;69.33
28000;BME280;15328;50.860;10.562;2023-02-12T10:13:06;98561.53;;;8.49;69.00
28000;BME280;15328;50.860;10.562;2023-02-12T10:23:54;98560.06;;;8.55;67.97
28000;BME280;15328;50.860;10.562;2023-02-12T10:29:04;98561.75;;;8.56;67.59
28000;BME280;15328;50.860;10.562;2023-02-12T10:34:19;98569.97;;;8.71;67.40
28000;BME280;15328;50.860;10.562;2023-02-12T10:39:25;98566.09;;;8.83;67.07
28000;BME280;15328;50.860;10.562;2023-02-12T10:44:28;98571.41;;;8.83;66.88
28000;BME280;15328;50.860;10.562;2023-02-12T10:49:30;98574.78;;;8.93;66.46
28000;BME280;15328;50.860;10.562;2023-02-12T10:54:35;98563.97;;;8.86;66.23
28000;BME280;15328;50.860;10.562;2023-02-12T10:59:37;98564.06;;;8.77;66.16
28000;BME280;15328;50.860;10.562;2023-02-12T11:04:37;98562.38;;;8.76;66.37
28000;BME280;15328;50.860;10.562;2023-02-12T11:09:41;98565.41;;;8.81;66.19
28000;BME280;15328;50.860;10.562;2023-02-12T11:14:53;98557.31;;;8.82;66.10
28000;BME280;15328;50.860;10.562;2023-02-12T11:25:16;98544.50;;;8.78;66.15
28000;BME280;15328;50.860;10.562;2023-02-12T11:30:20;98545.19;;;8.80;66.49
28000;BME280;15328;50.860;10.562;2023-02-12T11:35:22;98541.06;;;8.85;66.19
28000;BME280;15328;50.860;10.562;2023-02-12T11:40:30;98532.63;;;8.90;66.24
28000;BME280;15328;50.860;10.562;2023-02-12T11:45:36;98539.13;;;8.95;66.37
28000;BME280;15328;50.860;10.562;2023-02-12T11:50:45;98533.97;;;8.94;66.01
28000;BME280;15328;50.860;10.562;2023-02-12T11:55:57;98530.00;;;8.98;65.87
28000;BME280;15328;50.860;10.562;2023-02-12T12:01:07;98527.88;;;9.02;65.75
28000;BME280;15328;50.860;10.562;2023-02-12T12:11:27;98523.31;;;9.12;65.34
28000;BME280;15328;50.860;10.562;2023-02-12T12:16:34;98527.47;;;9.14;65.33
28000;BME280;15328;50.860;10.562;2023-02-12T12:22:03;98521.00;;;9.17;65.33
28000;BME280;15328;50.860;10.562;2023-02-12T12:27:23;98519.00;;;9.19;64.66
28000;BME280;15328;50.860;10.562;2023-02-12T12:32:46;98516.84;;;9.14;65.10
28000;BME280;15328;50.860;10.562;2023-02-12T12:49:01;98517.16;;;9.11;65.12
28000;BME280;15328;50.860;10.562;2023-02-12T13:21:44;98508.91;;;9.22;64.10
28000;BME280;15328;50.860;10.562;2023-02-12T13:26:58;98512.03;;;9.18;63.98
28000;BME280;15328;50.860;10.562;2023-02-12T13:32:04;98511.69;;;9.13;64.33
28000;BME280;15328;50.860;10.562;2023-02-12T13:37:13;98512.84;;;9.10;64.09
28000;BME280;15328;50.860;10.562;2023-02-12T13:47:50;98517.94;;;9.04;64.45
28000;BME280;15328;50.860;10.562;2023-02-12T13:53:26;98507.13;;;8.97;64.76
28000;BME280;15328;50.860;10.562;2023-02-12T14:03:39;98510.75;;;8.96;64.93
28000;BME280;15328;50.860;10.562;2023-02-12T14:08:50;98506.63;;;9.02;64.66
28000;BME280;15328;50.860;10.562;2023-02-12T14:13:55;98505.44;;;8.96;64.29
28000;BME280;15328;50.860;10.562;2023-02-12T14:29:35;98492.13;;;8.88;65.04
28000;BME280;15328;50.860;10.562;2023-02-12T14:34:37;98502.09;;;8.86;65.08
28000;BME280;15328;50.860;10.562;2023-02-12T14:39:38;98492.28;;;8.86;65.09
28000;BME280;15328;50.860;10.562;2023-02-12T14:44:45;98493.44;;;8.84;64.85
28000;BME280;15328;50.860;10.562;2023-02-12T14:49:50;98485.84;;;8.63;65.46
28000;BME280;15328;50.860;10.562;2023-02-12T14:55:05;98496.94;;;8.58;65.86
28000;BME280;15328;50.860;10.562;2023-02-12T15:05:27;98498.97;;;8.47;65.79
28000;BME280;15328;50.860;10.562;2023-02-12T15:10:36;98506.06;;;8.38;66.33
28000;BME280;15328;50.860;10.562;2023-02-12T15:15:53;98502.88;;;8.34;65.87
28000;BME280;15328;50.860;10.562;2023-02-12T15:21:20;98502.78;;;8.26;66.12
28000;BME280;15328;50.860;10.562;2023-02-12T15:26:23;98494.84;;;8.26;65.97
28000;BME280;15328;50.860;10.562;2023-02-12T15:31:26;98504.22;;;8.21;66.29
28000;BME280;15328;50.860;10.562;2023-02-12T15:36:30;98501.88;;;8.18;66.02
28000;BME280;15328;50.860;10.562;2023-02-12T15:46:32;98506.81;;;7.95;66.60
28000;BME280;15328;50.860;10.562;2023-02-12T15:51:34;98509.91;;;7.90;66.62
28000;BME280;15328;50.860;10.562;2023-02-12T15:56:39;98503.78;;;7.72;67.19
28000;BME280;15328;50.860;10.562;2023-02-12T16:01:55;98509.06;;;7.72;67.33
28000;BME280;15328;50.860;10.562;2023-02-12T16:06:56;98499.03;;;7.66;66.75
28000;BME280;15328;50.860;10.562;2023-02-12T16:12:11;98500.41;;;7.52;67.36
28000;BME280;15328;50.860;10.562;2023-02-12T16:17:26;98501.16;;;7.44;68.05
28000;BME280;15328;50.860;10.562;2023-02-12T16:22:35;98514.13;;;7.38;68.10
28000;BME280;15328;50.860;10.562;2023-02-12T16:27:36;98516.38;;;7.33;67.68
28000;BME280;15328;50.860;10.562;2023-02-12T16:32:40;98520.50;;;7.18;67.86
28000;BME280;15328;50.860;10.562;2023-02-12T16:37:44;98530.97;;;7.09;68.09
28000;BME280;15328;50.860;10.562;2023-02-12T16:47:48;98537.47;;;6.88;69.19
28000;BME280;15328;50.860;10.562;2023-02-12T16:52:58;98543.75;;;6.87;69.03
28000;BME280;15328;50.860;10.562;2023-02-12T16:57:59;98536.63;;;6.87;68.88
28000;BME280;15328;50.860;10.562;2023-02-12T17:03:00;98544.00;;;6.83;68.85
28000;BME280;15328;50.860;10.562;2023-02-12T17:08:00;98543.31;;;6.81;69.10
28000;BME280;15328;50.860;10.562;2023-02-12T17:13:03;98545.69;;;6.75;69.05
28000;BME280;15328;50.860;10.562;2023-02-12T17:18:04;98552.25;;;6.71;69.06
28000;BME280;15328;50.860;10.562;2023-02-12T17:23:05;98543.91;;;6.66;69.05
28000;BME280;15328;50.860;10.562;2023-02-12T17:28:06;98543.06;;;6.56;68.87
28000;BME280;15328;50.860;10.562;2023-02-12T17:33:08;98546.97;;;6.51;68.63
28000;BME280;15328;50.860;10.562;2023-02-12T17:38:08;98540.47;;;6.46;69.01
28000;BME280;15328;50.860;10.562;2023-02-12T17:43:09;98547.16;;;6.40;69.10
28000;BME280;15328;50.860;10.562;2023-02-12T17:48:10;98552.28;;;6.42;69.34
28000;BME280;15328;50.860;10.562;2023-02-12T17:53:11;98554.38;;;6.38;69.43
28000;BME280;15328;50.860;10.562;2023-02-12T17:58:12;98550.34;;;6.44;69.52
28000;BME280;15328;50.860;10.562;2023-02-12T18:03:12;98557.28;;;6.45;69.64
28000;BME280;15328;50.860;10.562;2023-02-12T18:08:12;98553.81;;;6.44;69.53
28000;BME280;15328;50.860;10.562;2023-02-12T18:13:13;98557.59;;;6.42;69.63
28000;BME280;15328;50.860;10.562;2023-02-12T18:18:13;98552.28;;;6.42;69.31
28000;BME280;15328;50.860;10.562;2023-02-12T18:23:15;98559.25;;;6.43;69.01
28000;BME280;15328;50.860;10.562;2023-02-12T18:28:16;98560.66;;;6.37;69.73
28000;BME280;15328;50.860;10.562;2023-02-12T18:33:16;98549.38;;;6.35;69.22
28000;BME280;15328;50.860;10.562;2023-02-12T18:38:16;98551.19;;;6.35;69.60
28000;BME280;15328;50.860;10.562;2023-02-12T18:43:16;98550.06;;;6.37;69.54
28000;BME280;15328;50.860;10.562;2023-02-12T18:48:17;98553.00;;;6.34;69.73
28000;BME280;15328;50.860;10.562;2023-02-12T18:53:17;98553.16;;;6.33;69.86
28000;BME280;15328;50.860;10.562;2023-02-12T18:58:19;98553.41;;;6.30;69.65
28000;BME280;15328;50.860;10.562;2023-02-12T19:03:19;98545.75;;;6.27;69.36
28000;BME280;15328;50.860;10.562;2023-02-12T19:08:20;98541.16;;;6.29;69.74
28000;BME280;15328;50.860;10.562;2023-02-12T19:13:20;98538.25;;;6.22;69.41
28000;BME280;15328;50.860;10.562;2023-02-12T19:18:21;98537.41;;;6.22;69.91
28000;BME280;15328;50.860;10.562;2023-02-12T19:23:21;98548.13;;;6.20;69.54
28000;BME280;15328;50.860;10.562;2023-02-12T19:28:22;98548.81;;;6.12;70.05
28000;BME280;15328;50.860;10.562;2023-02-12T19:33:22;98553.00;;;6.15;70.03
28000;BME280;15328;50.860;10.562;2023-02-12T19:38:22;98550.06;;;6.18;69.68
28000;BME280;15328;50.860;10.562;2023-02-12T19:43:23;98555.78;;;6.23;70.26
28000;BME280;15328;50.860;10.562;2023-02-12T19:48:23;98552.44;;;6.21;69.99
28000;BME280;15328;50.860;10.562;2023-02-12T19:53:26;98560.34;;;6.21;70.14
28000;BME280;15328;50.860;10.562;2023-02-12T19:58:26;98565.78;;;6.19;70.51
28000;BME280;15328;50.860;10.562;2023-02-12T20:03:27;98565.09;;;6.17;70.49
28000;BME280;15328;50.860;10.562;2023-02-12T20:08:28;98563.84;;;6.22;70.68
28000;BME280;15328;50.860;10.562;2023-02-12T20:13:28;98562.59;;;6.16;70.44
28000;BME280;15328;50.860;10.562;2023-02-12T20:18:28;98566.75;;;6.09;70.34
28000;BME280;15328;50.860;10.562;2023-02-12T20:23:29;98572.59;;;6.03;70.54
28000;BME280;15328;50.860;10.562;2023-02-12T20:28:29;98566.47;;;6.02;70.61
28000;BME280;15328;50.860;10.562;2023-02-12T20:33:29;98578.28;;;5.98;70.60
28000;BME280;15328;50.860;10.562;2023-02-12T20:38:30;98578.00;;;5.92;70.83
28000;BME280;15328;50.860;10.562;2023-02-12T20:43:31;98560.03;;;5.85;71.01
28000;BME280;15328;50.860;10.562;2023-02-12T20:48:32;98568.38;;;5.81;71.28
28000;BME280;15328;50.860;10.562;2023-02-12T20:53:33;98571.53;;;5.75;71.03
28000;BME280;15328;50.860;10.562;2023-02-12T20:58:34;98568.03;;;5.65;71.20
28000;BME280;15328;50.860;10.562;2023-02-12T21:03:35;98577.91;;;5.63;71.46
28000;BME280;15328;50.860;10.562;2023-02-12T21:08:37;98575.81;;;5.66;71.94
28000;BME280;15328;50.860;10.562;2023-02-12T21:13:37;98584.28;;;5.60;71.45
28000;BME280;15328;50.860;10.562;2023-02-12T21:18:46;98588.31;;;5.54;71.83
28000;BME280;15328;50.860;10.562;2023-02-12T21:23:46;98589.84;;;5.57;71.50
28000;BME280;15328;50.860;10.562;2023-02-12T21:28:47;98587.75;;;5.51;72.04
28000;BME280;15328;50.860;10.562;2023-02-12T21:33:49;98591.09;;;5.53;71.72
28000;BME280;15328;50.860;10.562;2023-02-12T21:38:50;98590.41;;;5.61;70.81
28000;BME280;15328;50.860;10.562;2023-02-12T21:43:57;98579.00;;;5.50;71.20
28000;BME280;15328;50.860;10.562;2023-02-12T21:48:57;98583.56;;;5.48;71.82
28000;BME280;15328;50.860;10.562;2023-02-12T21:54:01;98571.72;;;5.43;71.95
28000;BME280;15328;50.860;10.562;2023-02-12T21:59:02;98572.53;;;5.34;72.27
28000;BME280;15328;50.860;10.562;2023-02-12T22:04:04;98575.47;;;5.40;71.92
28000;BME280;15328;50.860;10.562;2023-02-12T22:09:07;98575.44;;;5.31;72.48
28000;BME280;15328;50.860;10.562;2023-02-12T22:14:11;98577.22;;;5.30;72.38
28000;BME280;15328;50.860;10.562;2023-02-12T22:19:13;98574.19;;;5.35;72.08
28000;BME280;15328;50.860;10.562;2023-02-12T22:24:14;98574.34;;;5.43;72.02
28000;BME280;15328;50.860;10.562;2023-02-12T22:29:15;98558.50;;;5.43;72.32
28000;BME280;15328;50.860;10.562;2023-02-12T22:34:16;98558.09;;;5.47;71.70
28000;BME280;15328;50.860;10.562;2023-02-12T22:39:17;98560.75;;;5.47;72.21
28000;BME280;15328;50.860;10.562;2023-02-12T22:44:18;98559.91;;;5.47;71.81
28000;BME280;15328;50.860;10.562;2023-02-12T22:49:18;98561.16;;;5.43;72.00
28000;BME280;15328;50.860;10.562;2023-02-12T22:54:19;98556.19;;;5.49;72.11
28000;BME280;15328;50.860;10.562;2023-02-12T22:59:19;98561.22;;;5.52;71.92
28000;BME280;15328;50.860;10.562;2023-02-12T23:04:20;98560.66;;;5.49;71.60
28000;BME280;15328;50.860;10.562;2023-02-12T23:09:20;98561.47;;;5.49;71.63
28000;BME280;15328;50.860;10.562;2023-02-12T23:14:21;98567.97;;;5.45;71.65
28000;BME280;15328;50.860;10.562;2023-02-12T23:19:21;98572.16;;;5.48;71.66
28000;BME280;15328;50.860;10.562;2023-02-12T23:24:22;98568.81;;;5.46;71.21
28000;BME280;15328;50.860;10.562;2023-02-12T23:29:24;98569.41;;;5.49;71.45
28000;BME280;15328;50.860;10.562;2023-02-12T23:34:25;98568.44;;;5.50;71.15
28000;BME280;15328;50.860;10.562;2023-02-12T23:39:25;98548.97;;;5.51;71.05
28000;BME280;15328;50.860;10.562;2023-02-12T23:44:25;98553.69;;;5.48;70.89
28000;BME280;15328;50.860;10.562;2023-02-12T23:49:25;98553.56;;;5.49;70.47
28000;BME280;15328;50.860;10.562;2023-02-12T23:54:26;98555.22;;;5.50;70.37
28000;BME280;15328;50.860;10.562;2023-02-12T23:59:26;98539.47;;;5.39;70.31
